Time;durP1;ratioP1;P1;durP2;ratioP2;P2;SDS_P1;SDS_P2;PMS_P1;PMS_P2;Temp;Humidity;BMP_temperature;BMP_pressure;BME280_temperature;BME280_humidity;BME280_pressure;Samples;Min_cycle;Max_cycle;Signal;HPM_P1;HPM_P2
2021/06/29 00:02:15;;;;;;;2.50;2.20;;;;;;;;;;5118462;28;20620;-66
2021/06/29 00:04:46;;;;;;;2.50;2.30;;;;;;;;;;5118764;28;20216;-66
2021/06/29 00:07:14;;;;;;;3.70;2.30;;;;;;;;;;5106489;28;20201;-66
2021/06/29 00:09:41;;;;;;;5.37;2.53;;;;;;;;;;5117603;28;20232;-66
2021/06/29 00:12:10;;;;;;;2.47;2.27;;;;;;;;;;5113941;28;20276;-66
2021/06/29 00:14:38;;;;;;;5.00;2.53;;;;;;;;;;5119395;28;20231;-66
2021/06/29 00:17:06;;;;;;;4.33;2.23;;;;;;;;;;5118499;28;20652;-66
2021/06/29 00:19:33;;;;;;;2.60;2.40;;;;;;;;;;5119005;28;20210;-66
2021/06/29 00:22:03;;;;;;;2.43;2.23;;;;;;;;;;5117432;28;20589;-66
2021/06/29 00:24:30;;;;;;;4.00;2.57;;;;;;;;;;5118712;28;20202;-66
2021/06/29 00:26:58;;;;;;;2.67;2.47;;;;;;;;;;5117548;28;20340;-66
2021/06/29 00:29:26;;;;;;;4.00;2.33;;;;;;;;;;5119852;28;20207;-66
2021/06/29 00:31:53;;;;;;;3.23;2.47;;;;;;;;;;5116714;28;20217;-66
2021/06/29 00:34:21;;;;;;;2.80;2.50;;;;;;;;;;5117385;28;20199;-66
2021/06/29 00:36:50;;;;;;;3.03;2.73;;;;;;;;;;5119084;28;20240;-66
2021/06/29 00:39:19;;;;;;;3.17;2.27;;;;;;;;;;5118376;28;20208;-67
2021/06/29 00:41:47;;;;;;;3.10;2.80;;;;;;;;;;5118985;28;20230;-66
2021/06/29 00:44:21;;;;;;;3.30;3.00;;;;;;;;;;5118229;28;20206;-66
2021/06/29 00:46:49;;;;;;;2.57;2.37;;;;;;;;;;5117832;28;20621;-66
2021/06/29 00:49:17;;;;;;;4.77;3.93;;;;;;;;;;5118209;28;20201;-66
2021/06/29 00:51:45;;;;;;;3.73;3.43;;;;;;;;;;5116362;28;20216;-66
2021/06/29 00:54:13;;;;;;;3.93;3.53;;;;;;;;;;5117788;28;20211;-66
2021/06/29 00:56:43;;;;;;;5.20;3.93;;;;;;;;;;5116523;28;20205;-66
2021/06/29 00:59:11;;;;;;;4.30;3.93;;;;;;;;;;5112844;28;20207;-66
2021/06/29 01:01:39;;;;;;;4.47;4.10;;;;;;;;;;5116838;28;20710;-64
2021/06/29 01:04:07;;;;;;;4.23;3.83;;;;;;;;;;5116093;28;20281;-65
2021/06/29 01:06:35;;;;;;;4.37;3.97;;;;;;;;;;5116900;28;20259;-65
2021/06/29 01:09:03;;;;;;;5.57;4.57;;;;;;;;;;5118258;28;20205;-65
2021/06/29 01:11:30;;;;;;;4.77;4.37;;;;;;;;;;5109447;28;20221;-64
2021/06/29 01:14:09;;;;;;;4.03;3.70;;;;;;;;;;5113120;28;20205;-64
2021/06/29 01:16:37;;;;;;;4.60;4.20;;;;;;;;;;5117184;28;20192;-64
2021/06/29 01:19:04;;;;;;;5.20;4.70;;;;;;;;;;5118190;28;20311;-65
2021/06/29 01:21:37;;;;;;;4.47;4.07;;;;;;;;;;5116840;28;20688;-64
2021/06/29 01:24:06;;;;;;;5.23;4.07;;;;;;;;;;5117116;28;20200;-64
2021/06/29 01:26:36;;;;;;;5.07;4.10;;;;;;;;;;5118094;28;20563;-64
2021/06/29 01:29:04;;;;;;;5.00;4.03;;;;;;;;;;5113371;28;20204;-65
2021/06/29 01:31:31;;;;;;;4.50;4.10;;;;;;;;;;5116628;28;20758;-65
2021/06/29 01:33:59;;;;;;;4.47;4.07;;;;;;;;;;5115833;28;20250;-64
2021/06/29 01:36:32;;;;;;;5.27;4.60;;;;;;;;;;5116160;28;20224;-65
2021/06/29 01:39:02;;;;;;;6.67;4.53;;;;;;;;;;5117296;28;20254;-64
2021/06/29 01:41:29;;;;;;;4.87;4.47;;;;;;;;;;5116344;28;20671;-65
2021/06/29 01:44:01;;;;;;;5.60;4.33;;;;;;;;;;5116646;28;20710;-65
2021/06/29 01:46:31;;;;;;;6.70;4.43;;;;;;;;;;5116460;28;20216;-65
2021/06/29 01:48:59;;;;;;;3.43;3.13;;;;;;;;;;5117567;28;20242;-65
2021/06/29 01:51:27;;;;;;;4.07;2.60;;;;;;;;;;5115846;28;20213;-64
2021/06/29 01:53:55;;;;;;;3.70;2.40;;;;;;;;;;5115003;28;20232;-65
2021/06/29 01:56:27;;;;;;;5.33;2.40;;;;;;;;;;5117232;28;20251;-64
2021/06/29 01:58:57;;;;;;;2.13;2.03;;;;;;;;;;5114702;28;20258;-65
2021/06/29 02:01:25;;;;;;;1.60;1.50;;;;;;;;;;5116266;28;20237;-65
2021/06/29 02:03:53;;;;;;;3.03;1.57;;;;;;;;;;5117663;28;20217;-65
2021/06/29 02:06:21;;;;;;;2.23;2.03;;;;;;;;;;5116484;28;20247;-64
2021/06/29 02:08:49;;;;;;;2.13;1.60;;;;;;;;;;5117834;28;20209;-64
2021/06/29 02:11:16;;;;;;;2.50;1.80;;;;;;;;;;5114811;28;20570;-65
2021/06/29 02:13:45;;;;;;;3.13;1.53;;;;;;;;;;5112343;28;20197;-64
2021/06/29 02:16:13;;;;;;;2.00;1.57;;;;;;;;;;5117553;28;20293;-64
2021/06/29 02:18:41;;;;;;;3.13;1.60;;;;;;;;;;5118086;28;20250;-65
2021/06/29 02:21:11;;;;;;;1.80;1.40;;;;;;;;;;5117120;28;20197;-64
2021/06/29 02:23:39;;;;;;;1.67;1.57;;;;;;;;;;5117876;28;20641;-64
2021/06/29 02:26:07;;;;;;;1.30;1.20;;;;;;;;;;5117794;28;20247;-64
2021/06/29 02:28:34;;;;;;;1.40;1.30;;;;;;;;;;5121943;28;20215;-65
2021/06/29 02:31:04;;;;;;;1.83;1.47;;;;;;;;;;5121556;28;20260;-64
2021/06/29 02:33:32;;;;;;;1.80;1.70;;;;;;;;;;5120788;28;20216;-64
2021/06/29 02:35:59;;;;;;;2.30;1.17;;;;;;;;;;5113934;28;20236;-65
2021/06/29 02:38:27;;;;;;;1.30;1.30;;;;;;;;;;5118063;28;20209;-64
2021/06/29 02:40:55;;;;;;;3.03;1.73;;;;;;;;;;5120864;28;20748;-64
2021/06/29 02:43:22;;;;;;;2.23;1.60;;;;;;;;;;5121086;28;20200;-64
2021/06/29 02:45:50;;;;;;;2.13;1.53;;;;;;;;;;5120925;28;20253;-64
2021/06/29 02:48:19;;;;;;;2.67;1.40;;;;;;;;;;5121042;28;20205;-64
2021/06/29 02:50:47;;;;;;;2.20;1.30;;;;;;;;;;5120959;28;20223;-64
2021/06/29 02:53:15;;;;;;;3.03;1.57;;;;;;;;;;5121095;28;20222;-64
2021/06/29 02:55:42;;;;;;;1.60;1.50;;;;;;;;;;5121572;28;20204;-64
2021/06/29 02:58:10;;;;;;;1.60;1.50;;;;;;;;;;5121303;28;20197;-65
2021/06/29 03:00:38;;;;;;;4.10;1.37;;;;;;;;;;5121513;28;20234;-64
2021/06/29 03:03:05;;;;;;;2.07;1.67;;;;;;;;;;5120742;28;20228;-64
2021/06/29 03:05:35;;;;;;;3.43;1.70;;;;;;;;;;5120225;28;20231;-64
2021/06/29 03:08:02;;;;;;;2.20;1.40;;;;;;;;;;5107386;28;20231;-64
2021/06/29 03:10:30;;;;;;;1.93;1.40;;;;;;;;;;5119318;28;20205;-65
2021/06/29 03:12:58;;;;;;;3.47;1.37;;;;;;;;;;5114893;28;20216;-65
2021/06/29 03:15:26;;;;;;;2.60;1.57;;;;;;;;;;5119904;28;20202;-64
2021/06/29 03:17:54;;;;;;;4.37;1.87;;;;;;;;;;5120223;28;20221;-65
2021/06/29 03:20:22;;;;;;;1.43;1.33;;;;;;;;;;5120593;28;20656;-64
2021/06/29 03:22:51;;;;;;;2.50;1.63;;;;;;;;;;5120938;28;20225;-65
2021/06/29 03:25:18;;;;;;;1.60;1.50;;;;;;;;;;5120479;28;20226;-66
2021/06/29 03:27:46;;;;;;;4.27;1.87;;;;;;;;;;5120569;28;20224;-66
2021/06/29 03:30:14;;;;;;;4.30;1.57;;;;;;;;;;5120916;28;20204;-67
2021/06/29 03:32:42;;;;;;;1.90;1.50;;;;;;;;;;5120634;28;20225;-66
2021/06/29 03:35:11;;;;;;;1.90;1.80;;;;;;;;;;5120267;28;20687;-66
2021/06/29 03:37:38;;;;;;;1.60;1.50;;;;;;;;;;5119194;28;20233;-66
2021/06/29 03:40:09;;;;;;;3.23;1.80;;;;;;;;;;5120534;28;20205;-66
2021/06/29 03:42:36;;;;;;;2.83;1.80;;;;;;;;;;5120167;28;20633;-66
2021/06/29 03:45:04;;;;;;;1.80;1.70;;;;;;;;;;5120569;28;20200;-66
2021/06/29 03:47:32;;;;;;;3.90;1.73;;;;;;;;;;5120221;28;20259;-66
2021/06/29 03:50:00;;;;;;;2.07;1.73;;;;;;;;;;5120146;28;20231;-66
2021/06/29 03:52:28;;;;;;;2.43;1.90;;;;;;;;;;5120015;28;20229;-66
2021/06/29 03:54:56;;;;;;;3.77;1.83;;;;;;;;;;5120016;28;20212;-66
2021/06/29 03:57:25;;;;;;;5.87;2.00;;;;;;;;;;5119900;28;20201;-66
2021/06/29 03:59:55;;;;;;;3.43;1.90;;;;;;;;;;5120098;28;20258;-66
2021/06/29 04:02:22;;;;;;;2.90;1.70;;;;;;;;;;5120042;28;20254;-66
2021/06/29 04:04:51;;;;;;;2.43;1.73;;;;;;;;;;5119823;28;20235;-66
2021/06/29 04:07:19;;;;;;;2.73;1.90;;;;;;;;;;5119900;28;20622;-66
2021/06/29 04:09:46;;;;;;;1.90;1.70;;;;;;;;;;5119720;28;20205;-66
2021/06/29 04:12:15;;;;;;;1.63;1.50;;;;;;;;;;5119013;28;20221;-66
2021/06/29 04:14:44;;;;;;;2.53;2.07;;;;;;;;;;5119744;28;20235;-66
2021/06/29 04:17:12;;;;;;;2.30;2.10;;;;;;;;;;5119496;28;20652;-66
2021/06/29 04:19:40;;;;;;;3.23;1.60;;;;;;;;;;5119406;28;20232;-66
2021/06/29 04:22:08;;;;;;;3.13;2.20;;;;;;;;;;5119118;28;20228;-67
2021/06/29 04:24:35;;;;;;;3.37;1.90;;;;;;;;;;5118942;28;20209;-66
2021/06/29 04:27:03;;;;;;;4.43;1.40;;;;;;;;;;5118694;28;20224;-66
2021/06/29 04:29:31;;;;;;;2.50;1.40;;;;;;;;;;5118886;28;20674;-67
2021/06/29 04:32:00;;;;;;;8.53;2.53;;;;;;;;;;5118585;28;20558;-67
2021/06/29 04:34:28;;;;;;;2.40;1.73;;;;;;;;;;5109747;28;20205;-66
2021/06/29 04:36:56;;;;;;;2.37;1.77;;;;;;;;;;5118542;28;20232;-66
2021/06/29 04:39:24;;;;;;;2.13;1.93;;;;;;;;;;5118761;28;20235;-66
2021/06/29 04:41:51;;;;;;;3.07;2.03;;;;;;;;;;5118359;28;20221;-66
2021/06/29 04:44:19;;;;;;;2.30;1.60;;;;;;;;;;5118566;28;20624;-67
2021/06/29 04:46:49;;;;;;;2.10;1.90;;;;;;;;;;5118145;28;20239;-66
2021/06/29 04:49:22;;;;;;;3.10;1.80;;;;;;;;;;5117916;28;20211;-66
2021/06/29 04:51:50;;;;;;;4.53;1.90;;;;;;;;;;5117891;28;20229;-67
2021/06/29 04:54:17;;;;;;;3.77;1.93;;;;;;;;;;5118140;28;20200;-66
2021/06/29 04:56:45;;;;;;;6.57;2.00;;;;;;;;;;5118208;28;20224;-66
2021/06/29 04:59:13;;;;;;;3.30;2.40;;;;;;;;;;5118435;28;20205;-66
2021/06/29 05:01:40;;;;;;;5.17;2.00;;;;;;;;;;5118666;28;20221;-66
2021/06/29 05:04:08;;;;;;;3.87;2.07;;;;;;;;;;5118464;28;20257;-66
2021/06/29 05:06:37;;;;;;;3.00;1.77;;;;;;;;;;5118365;28;20311;-66
2021/06/29 05:09:05;;;;;;;2.73;1.43;;;;;;;;;;5118350;28;20221;-64
2021/06/29 05:11:33;;;;;;;1.93;1.83;;;;;;;;;;5117881;28;20228;-64
2021/06/29 05:14:00;;;;;;;2.57;1.60;;;;;;;;;;5118821;28;20208;-64
2021/06/29 05:16:28;;;;;;;2.57;2.27;;;;;;;;;;5104755;28;20239;-64
2021/06/29 05:18:56;;;;;;;2.63;1.93;;;;;;;;;;5118300;28;20205;-64
2021/06/29 05:21:23;;;;;;;2.30;2.00;;;;;;;;;;5118008;28;20614;-64
2021/06/29 05:23:52;;;;;;;3.23;1.90;;;;;;;;;;5118277;28;20213;-64
2021/06/29 05:26:20;;;;;;;3.53;1.87;;;;;;;;;;5118172;28;20209;-64
2021/06/29 05:28:48;;;;;;;4.90;2.00;;;;;;;;;;5117902;28;20217;-64
2021/06/29 05:31:15;;;;;;;3.43;1.37;;;;;;;;;;5118490;28;20228;-64
2021/06/29 05:33:43;;;;;;;5.47;1.83;;;;;;;;;;5118091;28;20215;-64
2021/06/29 05:36:11;;;;;;;2.90;1.73;;;;;;;;;;5117852;28;20233;-64
2021/06/29 05:38:39;;;;;;;2.43;1.43;;;;;;;;;;5118159;28;20201;-64
2021/06/29 05:41:09;;;;;;;4.73;1.40;;;;;;;;;;5117896;28;20205;-64
2021/06/29 05:43:36;;;;;;;0.80;0.80;;;;;;;;;;5117647;28;20206;-64
2021/06/29 05:46:04;;;;;;;3.87;1.00;;;;;;;;;;5117739;28;20251;-65
2021/06/29 05:48:33;;;;;;;2.47;0.80;;;;;;;;;;5117869;28;20225;-66
2021/06/29 05:51:02;;;;;;;2.20;0.70;;;;;;;;;;5117580;28;20254;-66
2021/06/29 05:53:30;;;;;;;0.70;0.70;;;;;;;;;;5117908;28;20210;-64
2021/06/29 05:55:58;;;;;;;1.57;1.00;;;;;;;;;;5117618;28;20669;-64
2021/06/29 05:58:27;;;;;;;5.53;0.90;;;;;;;;;;5117329;28;20206;-64
2021/06/29 06:00:55;;;;;;;3.13;1.03;;;;;;;;;;5120634;28;20202;-64
2021/06/29 06:03:23;;;;;;;2.60;0.90;;;;;;;;;;5123537;28;20209;-64
2021/06/29 06:05:50;;;;;;;1.13;0.70;;;;;;;;;;5123836;28;20204;-64
2021/06/29 06:08:18;;;;;;;0.80;0.80;;;;;;;;;;5123783;28;20220;-64
2021/06/29 06:10:46;;;;;;;3.70;3.40;;;;;;;;;;5123904;28;20206;-65
2021/06/29 06:13:13;;;;;;;3.47;2.00;;;;;;;;;;5114804;28;20241;-65
2021/06/29 06:15:43;;;;;;;2.13;1.33;;;;;;;;;;5119113;28;20290;-64
2021/06/29 06:18:10;;;;;;;2.33;1.50;;;;;;;;;;5114717;28;20195;-63
2021/06/29 06:20:38;;;;;;;4.23;1.40;;;;;;;;;;5118782;28;20216;-63
2021/06/29 06:23:06;;;;;;;5.87;1.17;;;;;;;;;;5118657;28;20347;-64
2021/06/29 06:25:35;;;;;;;2.20;0.90;;;;;;;;;;5120296;28;20203;-63
2021/06/29 06:28:03;;;;;;;1.43;1.00;;;;;;;;;;5116085;28;20246;-64
2021/06/29 06:30:31;;;;;;;0.73;0.73;;;;;;;;;;5117403;28;20202;-63
2021/06/29 06:33:00;;;;;;;133.60;100.50;;;;;;;;;;5116364;28;20263;-63
2021/06/29 06:35:28;;;;;;;89.93;40.93;;;;;;;;;;5112723;28;20207;-64
2021/06/29 06:37:56;;;;;;;15.10;8.63;;;;;;;;;;5123225;28;20250;-64
2021/06/29 06:40:23;;;;;;;7.63;2.20;;;;;;;;;;5124799;28;20211;-64
2021/06/29 06:42:51;;;;;;;1.23;0.80;;;;;;;;;;5120422;28;20566;-64
2021/06/29 06:45:23;;;;;;;1.03;1.00;;;;;;;;;;5119140;28;20210;-63
2021/06/29 06:47:50;;;;;;;1.03;0.83;;;;;;;;;;5119369;28;20204;-63
2021/06/29 06:50:19;;;;;;;2.73;0.90;;;;;;;;;;5123721;28;20229;-63
2021/06/29 06:52:47;;;;;;;3.53;1.20;;;;;;;;;;5123926;28;20225;-63
2021/06/29 06:55:18;;;;;;;1.33;1.20;;;;;;;;;;5123828;28;20235;-63
2021/06/29 06:57:46;;;;;;;1.30;0.83;;;;;;;;;;5123480;28;20200;-61
2021/06/29 07:00:14;;;;;;;1.17;1.00;;;;;;;;;;5124726;28;20207;-62
2021/06/29 07:02:42;;;;;;;2.57;0.80;;;;;;;;;;5123918;28;20224;-62
2021/06/29 07:05:09;;;;;;;1.03;0.90;;;;;;;;;;5124220;28;20984;-62
2021/06/29 07:07:39;;;;;;;0.80;0.80;;;;;;;;;;5123668;28;20218;-62
2021/06/29 07:10:07;;;;;;;1.80;0.70;;;;;;;;;;5124751;28;20626;-62
2021/06/29 07:12:35;;;;;;;2.17;0.80;;;;;;;;;;5116398;28;20227;-62
2021/06/29 07:15:03;;;;;;;0.90;0.90;;;;;;;;;;5117965;28;20214;-63
2021/06/29 07:17:33;;;;;;;2.57;1.10;;;;;;;;;;5120285;28;20209;-65
2021/06/29 07:20:01;;;;;;;1.37;0.97;;;;;;;;;;5121114;28;20210;-64
2021/06/29 07:22:29;;;;;;;2.53;1.00;;;;;;;;;;5110887;28;20225;-65
2021/06/29 07:24:58;;;;;;;2.83;1.00;;;;;;;;;;5117581;28;20620;-64
2021/06/29 07:27:26;;;;;;;1.67;0.90;;;;;;;;;;5118395;28;20256;-65
2021/06/29 07:29:53;;;;;;;1.90;0.90;;;;;;;;;;5111009;28;20217;-63
2021/06/29 07:32:21;;;;;;;3.07;1.47;;;;;;;;;;5111895;28;20276;-63
2021/06/29 07:34:49;;;;;;;1.10;0.90;;;;;;;;;;5118799;28;20257;-64
2021/06/29 07:37:17;;;;;;;2.37;1.10;;;;;;;;;;5120531;28;20238;-63
2021/06/29 07:39:44;;;;;;;0.93;0.93;;;;;;;;;;5120475;28;20612;-63
2021/06/29 07:42:13;;;;;;;1.57;1.00;;;;;;;;;;5119121;28;20220;-62
2021/06/29 07:44:41;;;;;;;3.77;1.03;;;;;;;;;;5114550;28;20204;-63
2021/06/29 07:47:09;;;;;;;2.57;0.80;;;;;;;;;;5120395;28;20204;-62
2021/06/29 07:49:37;;;;;;;0.80;0.80;;;;;;;;;;5120538;28;20227;-62
2021/06/29 07:52:04;;;;;;;0.67;0.67;;;;;;;;;;5118989;28;20253;-64
2021/06/29 07:54:32;;;;;;;2.63;0.80;;;;;;;;;;5117814;28;20200;-64
2021/06/29 07:57:00;;;;;;;1.17;0.83;;;;;;;;;;5120628;28;20317;-64
2021/06/29 07:59:29;;;;;;;2.17;0.80;;;;;;;;;;5119367;28;20200;-62
2021/06/29 08:01:56;;;;;;;0.90;0.63;;;;;;;;;;5120399;28;20283;-64
2021/06/29 08:04:24;;;;;;;8.93;1.93;;;;;;;;;;5118689;28;20213;-62
2021/06/29 08:06:52;;;;;;;2.97;1.27;;;;;;;;;;5119574;28;20262;-62
2021/06/29 08:09:20;;;;;;;1.00;0.70;;;;;;;;;;5119453;28;20587;-62
2021/06/29 08:12:05;;;;;;;0.60;0.60;;;;;;;;;;5118586;28;20226;-62
2021/06/29 08:14:34;;;;;;;1.67;0.60;;;;;;;;;;5117322;28;20201;-64
2021/06/29 08:17:02;;;;;;;2.60;0.57;;;;;;;;;;5119397;28;20202;-62
2021/06/29 08:19:30;;;;;;;1.67;0.40;;;;;;;;;;5110802;28;20197;-62
2021/06/29 08:21:58;;;;;;;0.30;0.30;;;;;;;;;;5108710;28;20580;-62
2021/06/29 08:24:26;;;;;;;2.93;1.90;;;;;;;;;;5112247;28;20210;-62
2021/06/29 08:26:54;;;;;;;0.57;0.50;;;;;;;;;;5114005;28;20201;-62
2021/06/29 08:29:22;;;;;;;0.60;0.60;;;;;;;;;;5110040;28;20240;-62
2021/06/29 08:31:51;;;;;;;2.30;0.77;;;;;;;;;;5119116;28;20221;-63
2021/06/29 08:34:19;;;;;;;2.33;0.57;;;;;;;;;;5118166;28;20205;-65
2021/06/29 08:36:47;;;;;;;0.67;0.40;;;;;;;;;;5118489;28;20268;-66
2021/06/29 08:39:15;;;;;;;0.90;0.70;;;;;;;;;;5115544;28;20197;-67
2021/06/29 08:41:43;;;;;;;1.70;0.70;;;;;;;;;;5118442;28;20671;-67
2021/06/29 08:44:11;;;;;;;0.60;0.60;;;;;;;;;;5116773;28;20198;-68
2021/06/29 08:46:39;;;;;;;0.40;0.40;;;;;;;;;;5117668;28;20530;-68
2021/06/29 08:49:08;;;;;;;1.10;0.60;;;;;;;;;;5118248;28;22035;-67
2021/06/29 08:51:47;;;;;;;0.50;0.50;;;;;;;;;;5118027;28;20222;-67
2021/06/29 08:54:15;;;;;;;0.67;0.50;;;;;;;;;;5119524;28;20262;-67
2021/06/29 08:56:45;;;;;;;2.53;0.70;;;;;;;;;;5118689;28;20217;-67
2021/06/29 08:59:13;;;;;;;1.10;0.57;;;;;;;;;;5118365;28;20197;-67
2021/06/29 09:01:40;;;;;;;1.00;0.70;;;;;;;;;;5119229;28;20631;-67
2021/06/29 09:04:10;;;;;;;0.80;0.80;;;;;;;;;;5116327;28;20260;-67
2021/06/29 09:06:38;;;;;;;0.60;0.60;;;;;;;;;;5117825;28;20206;-67
2021/06/29 09:09:22;;;;;;;1.53;0.70;;;;;;;;;;5118041;28;20260;-67
2021/06/29 09:11:50;;;;;;;0.80;0.80;;;;;;;;;;5111968;28;20221;-67
2021/06/29 09:14:19;;;;;;;0.67;0.67;;;;;;;;;;5117023;28;20209;-68
2021/06/29 09:16:47;;;;;;;0.50;0.50;;;;;;;;;;5118917;28;20215;-67
2021/06/29 09:19:30;;;;;;;1.00;0.80;;;;;;;;;;5117158;28;20275;-66
2021/06/29 09:22:19;;;;;;;0.77;0.70;;;;;;;;;;5115032;28;20217;-67
2021/06/29 09:24:47;;;;;;;0.60;0.40;;;;;;;;;;5118116;28;20332;-66
2021/06/29 09:27:15;;;;;;;0.67;0.60;;;;;;;;;;5117558;28;20659;-68
2021/06/29 09:29:42;;;;;;;1.40;0.67;;;;;;;;;;5118583;28;20226;-67
2021/06/29 09:32:18;;;;;;;0.80;0.70;;;;;;;;;;5116403;28;20240;-67
2021/06/29 09:35:00;;;;;;;0.57;0.57;;;;;;;;;;5116974;28;20198;-67
2021/06/29 09:37:35;;;;;;;1.10;0.40;;;;;;;;;;5118386;28;20239;-67
2021/06/29 09:40:10;;;;;;;0.30;0.30;;;;;;;;;;5116898;28;20645;-67
2021/06/29 09:42:38;;;;;;;1.90;0.50;;;;;;;;;;5118586;28;20228;-67
2021/06/29 09:45:26;;;;;;;0.40;0.40;;;;;;;;;;5116318;28;20202;-67
2021/06/29 09:47:54;;;;;;;0.40;0.40;;;;;;;;;;5114953;28;20236;-67
2021/06/29 09:50:35;;;;;;;0.70;0.57;;;;;;;;;;5118041;28;20226;-68
2021/06/29 09:53:12;;;;;;;1.00;0.30;;;;;;;;;;5117545;28;20287;-68
2021/06/29 09:55:40;;;;;;;0.77;0.37;;;;;;;;;;5118459;28;20203;-68
2021/06/29 09:58:09;;;;;;;0.30;0.30;;;;;;;;;;5117722;28;20259;-68
2021/06/29 10:00:43;;;;;;;0.30;0.30;;;;;;;;;;5118364;28;20209;-66
2021/06/29 10:03:19;;;;;;;0.53;0.30;;;;;;;;;;5116184;28;20214;-67
2021/06/29 10:05:46;;;;;;;5.40;0.50;;;;;;;;;;5116795;28;20197;-67
2021/06/29 10:08:23;;;;;;;0.10;0.10;;;;;;;;;;5117023;28;20567;-67
2021/06/29 10:11:02;;;;;;;0.50;0.30;;;;;;;;;;5117415;28;20262;-67
2021/06/29 10:13:33;;;;;;;0.57;0.20;;;;;;;;;;5116032;28;20200;-67
2021/06/29 10:16:00;;;;;;;0.40;0.40;;;;;;;;;;5109882;28;20229;-67
2021/06/29 10:18:30;;;;;;;0.20;0.20;;;;;;;;;;5116505;28;20203;-67
2021/06/29 10:21:00;;;;;;;0.87;0.30;;;;;;;;;;5117154;28;20203;-67
2021/06/29 10:23:30;;;;;;;3.40;0.60;;;;;;;;;;5115465;28;20220;-67
2021/06/29 10:25:58;;;;;;;0.83;0.30;;;;;;;;;;5118390;28;20207;-67
2021/06/29 10:28:27;;;;;;;1.70;0.60;;;;;;;;;;5115711;28;20204;-67
2021/06/29 10:30:56;;;;;;;0.83;0.37;;;;;;;;;;5118208;28;20234;-67
2021/06/29 10:33:24;;;;;;;0.53;0.30;;;;;;;;;;5115773;28;20278;-67
2021/06/29 10:35:52;;;;;;;0.67;0.53;;;;;;;;;;5117583;28;20212;-67
2021/06/29 10:38:20;;;;;;;2.87;0.50;;;;;;;;;;5117258;28;20200;-67
2021/06/29 10:40:51;;;;;;;0.30;0.30;;;;;;;;;;5118014;28;20261;-67
2021/06/29 10:43:19;;;;;;;1.20;0.70;;;;;;;;;;5116194;28;20715;-67
2021/06/29 10:45:51;;;;;;;0.90;0.90;;;;;;;;;;5114575;28;20214;-67
2021/06/29 10:48:20;;;;;;;0.47;0.43;;;;;;;;;;5119721;28;20204;-67
2021/06/29 10:50:49;;;;;;;0.50;0.40;;;;;;;;;;5121555;28;20227;-67
2021/06/29 10:53:33;;;;;;;0.47;0.47;;;;;;;;;;5120553;28;20226;-66
2021/06/29 10:56:04;;;;;;;0.53;0.40;;;;;;;;;;5121649;28;20211;-67
2021/06/29 10:58:39;;;;;;;0.97;0.43;;;;;;;;;;5120644;28;20198;-68
2021/06/29 11:01:26;;;;;;;0.30;0.30;;;;;;;;;;5121544;28;20198;-67
2021/06/29 11:03:55;;;;;;;0.63;0.43;;;;;;;;;;5120599;28;20213;-67
2021/06/29 11:06:43;;;;;;;0.60;0.33;;;;;;;;;;5121189;28;20240;-66
2021/06/29 11:09:12;;;;;;;0.20;0.20;;;;;;;;;;5118718;28;20200;-68
2021/06/29 11:11:42;;;;;;;0.50;0.40;;;;;;;;;;5117376;28;20225;-68
2021/06/29 11:14:26;;;;;;;0.50;0.50;;;;;;;;;;5110313;28;20202;-68
2021/06/29 11:16:54;;;;;;;0.47;0.30;;;;;;;;;;5119419;28;20320;-68
2021/06/29 11:19:22;;;;;;;0.50;0.50;;;;;;;;;;5118135;28;20718;-68
2021/06/29 11:21:50;;;;;;;0.27;0.13;;;;;;;;;;5117461;28;20218;-67
2021/06/29 11:24:36;;;;;;;0.10;0.10;;;;;;;;;;5120075;28;20799;-68
2021/06/29 11:27:06;;;;;;;0.40;0.40;;;;;;;;;;5119834;28;20244;-68
2021/06/29 11:29:40;;;;;;;0.30;0.30;;;;;;;;;;5119553;28;20261;-68
2021/06/29 11:32:27;;;;;;;0.83;0.40;;;;;;;;;;5120862;28;20608;-68
2021/06/29 11:34:55;;;;;;;0.50;0.40;;;;;;;;;;5119903;28;20206;-66
2021/06/29 11:37:23;;;;;;;0.17;0.17;;;;;;;;;;5119770;28;20230;-67
2021/06/29 11:39:57;;;;;;;0.30;0.30;;;;;;;;;;5108076;28;20719;-68
2021/06/29 11:42:28;;;;;;;0.30;0.20;;;;;;;;;;5119614;28;20223;-68
2021/06/29 11:45:04;;;;;;;1.00;0.20;;;;;;;;;;5119368;28;20207;-66
2021/06/29 11:47:40;;;;;;;2.73;0.47;;;;;;;;;;5117891;28;20688;-67
2021/06/29 11:50:15;;;;;;;0.20;0.20;;;;;;;;;;5120166;28;20632;-67
2021/06/29 11:52:43;;;;;;;0.60;0.50;;;;;;;;;;5119065;28;20231;-67
2021/06/29 11:55:16;;;;;;;0.40;0.40;;;;;;;;;;5120564;28;20200;-67
2021/06/29 11:57:46;;;;;;;0.83;0.30;;;;;;;;;;5118420;28;20250;-67
2021/06/29 12:00:19;;;;;;;0.50;0.50;;;;;;;;;;5119106;28;20211;-67
2021/06/29 12:02:47;;;;;;;0.33;0.33;;;;;;;;;;5119645;28;20214;-67
2021/06/29 12:05:17;;;;;;;0.53;0.30;;;;;;;;;;5119591;28;20674;-67
2021/06/29 12:07:46;;;;;;;0.53;0.53;;;;;;;;;;5118223;28;20204;-67
2021/06/29 12:10:15;;;;;;;0.40;0.40;;;;;;;;;;5118250;28;20258;-67
2021/06/29 12:12:44;;;;;;;1.17;0.30;;;;;;;;;;5116312;28;20259;-69
2021/06/29 12:15:15;;;;;;;0.30;0.30;;;;;;;;;;5113475;28;20209;-67
2021/06/29 12:17:44;;;;;;;0.47;0.47;;;;;;;;;;5118583;28;20200;-69
2021/06/29 12:20:13;;;;;;;0.20;0.10;;;;;;;;;;5119796;28;20204;-69
2021/06/29 12:22:41;;;;;;;1.17;0.40;;;;;;;;;;5115621;28;20660;-69
2021/06/29 12:25:10;;;;;;;0.43;0.43;;;;;;;;;;5117908;28;20201;-69
2021/06/29 12:27:45;;;;;;;1.13;0.33;;;;;;;;;;5117974;28;20231;-69
2021/06/29 12:30:25;;;;;;;1.70;0.30;;;;;;;;;;5117844;28;20196;-69
2021/06/29 12:32:53;;;;;;;0.77;0.30;;;;;;;;;;5119208;28;20223;-69
2021/06/29 12:35:21;;;;;;;0.77;0.30;;;;;;;;;;5119827;28;20234;-69
2021/06/29 12:37:53;;;;;;;0.60;0.37;;;;;;;;;;5118640;28;20263;-69
2021/06/29 12:40:21;;;;;;;1.43;0.50;;;;;;;;;;5119769;28;20239;-69
2021/06/29 12:42:49;;;;;;;0.40;0.40;;;;;;;;;;5118333;28;20292;-69
2021/06/29 12:45:17;;;;;;;0.23;0.23;;;;;;;;;;5118188;28;20196;-69
2021/06/29 12:47:46;;;;;;;0.53;0.30;;;;;;;;;;5117889;28;20200;-67
2021/06/29 12:50:14;;;;;;;0.87;0.43;;;;;;;;;;5119197;28;20212;-69
2021/06/29 12:52:42;;;;;;;0.40;0.27;;;;;;;;;;5116372;28;20281;-70
2021/06/29 12:55:12;;;;;;;0.93;0.20;;;;;;;;;;5119405;28;20207;-69
2021/06/29 12:57:40;;;;;;;0.30;0.30;;;;;;;;;;5117241;28;20202;-69
2021/06/29 13:00:10;;;;;;;0.10;0.10;;;;;;;;;;5119267;28;20621;-69
2021/06/29 13:02:42;;;;;;;2.63;0.30;;;;;;;;;;5118207;28;20228;-69
2021/06/29 13:05:22;;;;;;;0.63;0.30;;;;;;;;;;5118729;28;20206;-67
2021/06/29 13:07:50;;;;;;;0.27;0.20;;;;;;;;;;5118212;28;20193;-68
2021/06/29 13:10:18;;;;;;;0.27;0.20;;;;;;;;;;5117502;28;20197;-68
2021/06/29 13:12:47;;;;;;;0.50;0.50;;;;;;;;;;5116905;28;20263;-69
2021/06/29 13:15:15;;;;;;;1.97;0.53;;;;;;;;;;5117438;28;20292;-69
2021/06/29 13:17:47;;;;;;;6.13;0.47;;;;;;;;;;5118021;28;20238;-69
2021/06/29 13:20:16;;;;;;;0.53;0.30;;;;;;;;;;5117621;28;20704;-69
2021/06/29 13:22:47;;;;;;;1.00;0.80;;;;;;;;;;5113832;28;20225;-67
2021/06/29 13:25:28;;;;;;;2.17;0.60;;;;;;;;;;5113501;28;20196;-68
2021/06/29 13:27:57;;;;;;;0.70;0.40;;;;;;;;;;5114046;28;20609;-67
2021/06/29 13:30:25;;;;;;;0.23;0.20;;;;;;;;;;5118533;28;20255;-67
2021/06/29 13:32:54;;;;;;;3.97;0.57;;;;;;;;;;5117571;28;20253;-67
2021/06/29 13:35:22;;;;;;;0.27;0.27;;;;;;;;;;5118539;28;20207;-67
2021/06/29 13:37:56;;;;;;;1.53;0.10;;;;;;;;;;5117262;28;20287;-67
2021/06/29 13:40:28;;;;;;;0.30;0.30;;;;;;;;;;5118665;28;20654;-67
2021/06/29 13:43:07;;;;;;;0.20;0.20;;;;;;;;;;5117273;28;20208;-69
2021/06/29 13:45:35;;;;;;;0.40;0.40;;;;;;;;;;5105867;28;20207;-68
2021/06/29 13:48:03;;;;;;;0.77;0.20;;;;;;;;;;5116877;28;20258;-67
2021/06/29 13:50:35;;;;;;;0.30;0.30;;;;;;;;;;5116427;28;20257;-67
2021/06/29 13:53:05;;;;;;;0.17;0.17;;;;;;;;;;5118662;28;20254;-67
2021/06/29 13:55:36;;;;;;;0.30;0.30;;;;;;;;;;5117772;28;20207;-69
2021/06/29 13:58:16;;;;;;;0.20;0.20;;;;;;;;;;5116165;28;20658;-69
2021/06/29 14:00:45;;;;;;;0.73;0.20;;;;;;;;;;5118343;28;20241;-69
2021/06/29 14:03:13;;;;;;;0.93;0.23;;;;;;;;;;5117407;28;20220;-69
2021/06/29 14:05:41;;;;;;;1.80;0.40;;;;;;;;;;5117946;28;20234;-69
2021/06/29 14:08:21;;;;;;;0.60;0.30;;;;;;;;;;5117607;28;20226;-69
2021/06/29 14:10:50;;;;;;;0.53;0.20;;;;;;;;;;5118348;28;20639;-69
2021/06/29 14:13:26;;;;;;;0.40;0.30;;;;;;;;;;5114878;28;20216;-69
2021/06/29 14:15:54;;;;;;;0.10;0.10;;;;;;;;;;5117505;28;20204;-69
2021/06/29 14:18:26;;;;;;;0.60;0.60;;;;;;;;;;5115783;28;20208;-69
2021/06/29 14:20:54;;;;;;;1.90;0.20;;;;;;;;;;5105053;28;20204;-69
2021/06/29 14:23:23;;;;;;;2.03;0.13;;;;;;;;;;5119503;28;20198;-69
2021/06/29 14:25:51;;;;;;;0.40;0.40;;;;;;;;;;5122495;28;20215;-69
2021/06/29 14:28:19;;;;;;;0.20;0.20;;;;;;;;;;5120292;28;20622;-69
2021/06/29 14:30:47;;;;;;;0.67;0.40;;;;;;;;;;5122307;28;20200;-69
2021/06/29 14:33:14;;;;;;;0.20;0.20;;;;;;;;;;5120133;28;20576;-69
2021/06/29 14:35:42;;;;;;;0.10;0.10;;;;;;;;;;5120661;28;20205;-69
2021/06/29 14:38:10;;;;;;;0.30;0.30;;;;;;;;;;5119154;28;20224;-69
2021/06/29 14:40:39;;;;;;;0.60;0.30;;;;;;;;;;5118530;28;20204;-69
2021/06/29 14:43:10;;;;;;;0.47;0.20;;;;;;;;;;5121177;28;20217;-69
2021/06/29 14:45:38;;;;;;;2.23;0.30;;;;;;;;;;5120192;28;20198;-69
2021/06/29 14:48:07;;;;;;;1.13;0.47;;;;;;;;;;5120150;28;20200;-69
2021/06/29 14:50:34;;;;;;;0.10;0.10;;;;;;;;;;5121621;28;20241;-69
2021/06/29 14:53:02;;;;;;;1.80;0.40;;;;;;;;;;5119935;28;20228;-69
2021/06/29 14:55:30;;;;;;;2.30;0.60;;;;;;;;;;5120690;28;20231;-69
2021/06/29 14:57:59;;;;;;;1.67;1.50;;;;;;;;;;5117867;28;20235;-68